sensor_id;sensor_type;location;lat;lon;timestamp;pressure;altitude;pressure_sealevel;temperature;humidity
15914;BME280;8055;51.930;8.840;2022-09-03T00:01:53;99416.69;;;15.96;48.92
15914;BME280;8055;51.930;8.840;2022-09-03T00:04:36;99412.88;;;15.98;49.63
15914;BME280;8055;51.930;8.840;2022-09-03T00:07:07;99406.16;;;15.93;49.71
15914;BME280;8055;51.930;8.840;2022-09-03T00:09:49;99412.47;;;15.94;49.26
15914;BME280;8055;51.930;8.840;2022-09-03T00:12:21;99407.00;;;15.94;49.69
15914;BME280;8055;51.930;8.840;2022-09-03T00:14:56;99413.34;;;15.88;49.65
15914;BME280;8055;51.930;8.840;2022-09-03T00:17:29;99409.97;;;15.92;49.72
15914;BME280;8055;51.930;8.840;2022-09-03T00:22:38;99407.28;;;15.86;49.95
15914;BME280;8055;51.930;8.840;2022-09-03T00:25:09;99401.16;;;15.84;50.39
15914;BME280;8055;51.930;8.840;2022-09-03T00:27:38;99403.28;;;15.82;49.77
15914;BME280;8055;51.930;8.840;2022-09-03T00:30:08;99409.00;;;15.73;50.60
15914;BME280;8055;51.930;8.840;2022-09-03T00:35:34;99408.16;;;15.66;50.69
15914;BME280;8055;51.930;8.840;2022-09-03T00:38:02;99406.94;;;15.56;51.11
15914;BME280;8055;51.930;8.840;2022-09-03T00:46:27;99404.47;;;15.41;51.49
15914;BME280;8055;51.930;8.840;2022-09-03T00:51:58;99407.25;;;15.27;51.53
15914;BME280;8055;51.930;8.840;2022-09-03T00:54:39;99402.88;;;15.20;52.40
15914;BME280;8055;51.930;8.840;2022-09-03T00:57:21;99397.81;;;15.17;52.01
15914;BME280;8055;51.930;8.840;2022-09-03T01:08:13;99388.00;;;14.89;52.79
15914;BME280;8055;51.930;8.840;2022-09-03T01:10:56;99387.16;;;14.89;53.24
15914;BME280;8055;51.930;8.840;2022-09-03T01:25:50;99390.47;;;14.97;52.79
15914;BME280;8055;51.930;8.840;2022-09-03T01:30:29;99395.09;;;15.10;52.35
15914;BME280;8055;51.930;8.840;2022-09-03T01:33:22;99403.91;;;15.19;51.74
15914;BME280;8055;51.930;8.840;2022-09-03T01:36:04;99400.56;;;15.17;51.92
15914;BME280;8055;51.930;8.840;2022-09-03T01:38:47;99408.13;;;15.21;51.96
15914;BME280;8055;51.930;8.840;2022-09-03T01:47:15;99405.00;;;15.04;52.95
15914;BME280;8055;51.930;8.840;2022-09-03T01:58:28;99395.53;;;14.94;52.91
15914;BME280;8055;51.930;8.840;2022-09-03T02:01:00;99398.91;;;14.96;52.67
15914;BME280;8055;51.930;8.840;2022-09-03T02:03:38;99397.25;;;14.95;53.04
15914;BME280;8055;51.930;8.840;2022-09-03T02:06:08;99394.06;;;14.91;53.08
15914;BME280;8055;51.930;8.840;2022-09-03T02:08:35;99395.97;;;14.91;52.41
15914;BME280;8055;51.930;8.840;2022-09-03T02:11:00;99392.00;;;14.87;53.71
15914;BME280;8055;51.930;8.840;2022-09-03T02:13:49;99398.69;;;14.91;53.53
15914;BME280;8055;51.930;8.840;2022-09-03T02:16:20;99393.47;;;14.89;53.43
15914;BME280;8055;51.930;8.840;2022-09-03T02:19:03;99392.22;;;14.92;53.06
15914;BME280;8055;51.930;8.840;2022-09-03T02:21:45;99391.16;;;14.86;53.61
15914;BME280;8055;51.930;8.840;2022-09-03T02:24:12;99405.66;;;14.87;53.20
15914;BME280;8055;51.930;8.840;2022-09-03T02:26:38;99414.72;;;14.80;53.33
15914;BME280;8055;51.930;8.840;2022-09-03T02:29:03;99398.31;;;14.80;53.32
15914;BME280;8055;51.930;8.840;2022-09-03T02:31:28;99401.47;;;14.77;53.88
15914;BME280;8055;51.930;8.840;2022-09-03T02:33:55;99397.47;;;14.80;53.60
15914;BME280;8055;51.930;8.840;2022-09-03T02:36:29;99401.06;;;14.74;54.15
15914;BME280;8055;51.930;8.840;2022-09-03T02:38:55;99393.47;;;14.69;54.25
15914;BME280;8055;51.930;8.840;2022-09-03T02:41:22;99401.06;;;14.67;54.32
15914;BME280;8055;51.930;8.840;2022-09-03T02:43:52;99396.63;;;14.66;53.84
15914;BME280;8055;51.930;8.840;2022-09-03T02:46:24;99400.19;;;14.60;54.60
15914;BME280;8055;51.930;8.840;2022-09-03T02:48:52;99394.97;;;14.58;54.35
15914;BME280;8055;51.930;8.840;2022-09-03T02:51:18;99399.59;;;14.58;54.25
15914;BME280;8055;51.930;8.840;2022-09-03T02:53:44;99397.47;;;14.60;54.14
15914;BME280;8055;51.930;8.840;2022-09-03T02:56:10;99399.59;;;14.58;54.80
15914;BME280;8055;51.930;8.840;2022-09-03T02:58:35;99390.75;;;14.56;54.65
15914;BME280;8055;51.930;8.840;2022-09-03T03:01:01;99388.66;;;14.58;54.49
15914;BME280;8055;51.930;8.840;2022-09-03T03:03:26;99388.66;;;14.65;54.54
15914;BME280;8055;51.930;8.840;2022-09-03T03:05:54;99387.16;;;14.62;54.75
15914;BME280;8055;51.930;8.840;2022-09-03T03:08:23;99386.34;;;14.68;54.79
15914;BME280;8055;51.930;8.840;2022-09-03T03:10:55;99383.81;;;14.60;54.28
15914;BME280;8055;51.930;8.840;2022-09-03T03:13:24;99382.13;;;14.59;54.91
15914;BME280;8055;51.930;8.840;2022-09-03T03:15:49;99381.28;;;14.58;54.68
15914;BME280;8055;51.930;8.840;2022-09-03T03:18:15;99378.75;;;14.57;54.45
15914;BME280;8055;51.930;8.840;2022-09-03T03:20:42;99376.88;;;14.57;54.44
15914;BME280;8055;51.930;8.840;2022-09-03T03:23:08;99375.16;;;14.50;54.65
15914;BME280;8055;51.930;8.840;2022-09-03T03:25:36;99381.28;;;14.45;55.01
15914;BME280;8055;51.930;8.840;2022-09-03T03:28:03;99389.06;;;14.48;54.80
15914;BME280;8055;51.930;8.840;2022-09-03T03:30:29;99378.72;;;14.44;54.82
15914;BME280;8055;51.930;8.840;2022-09-03T03:32:55;99383.38;;;14.43;54.98
15914;BME280;8055;51.930;8.840;2022-09-03T03:35:21;99380.41;;;14.38;55.50
15914;BME280;8055;51.930;8.840;2022-09-03T03:37:46;99395.13;;;14.44;55.56
15914;BME280;8055;51.930;8.840;2022-09-03T03:40:12;99390.91;;;14.41;55.09
15914;BME280;8055;51.930;8.840;2022-09-03T03:42:39;99391.34;;;14.38;55.60
15914;BME280;8055;51.930;8.840;2022-09-03T03:45:05;99390.91;;;14.41;55.70
15914;BME280;8055;51.930;8.840;2022-09-03T03:47:31;99393.22;;;14.38;55.37
15914;BME280;8055;51.930;8.840;2022-09-03T03:49:58;99395.97;;;14.38;55.24
15914;BME280;8055;51.930;8.840;2022-09-03T03:52:24;99389.25;;;14.27;56.02
15914;BME280;8055;51.930;8.840;2022-09-03T03:54:50;99388.84;;;14.30;55.33
15914;BME280;8055;51.930;8.840;2022-09-03T03:57:16;99389.03;;;14.35;56.01
15914;BME280;8055;51.930;8.840;2022-09-03T03:59:43;99388.41;;;14.33;55.55
15914;BME280;8055;51.930;8.840;2022-09-03T04:02:08;99393.66;;;14.28;56.41
15914;BME280;8055;51.930;8.840;2022-09-03T04:04:34;99389.66;;;14.30;56.18
15914;BME280;8055;51.930;8.840;2022-09-03T04:06:59;99386.50;;;14.33;55.30
15914;BME280;8055;51.930;8.840;2022-09-03T04:09:24;99382.13;;;14.32;55.99
15914;BME280;8055;51.930;8.840;2022-09-03T04:11:50;99382.53;;;14.29;55.81
15914;BME280;8055;51.930;8.840;2022-09-03T04:14:16;99384.41;;;14.29;55.94
15914;BME280;8055;51.930;8.840;2022-09-03T04:17:02;99381.66;;;14.29;55.69
15914;BME280;8055;51.930;8.840;2022-09-03T04:19:28;99383.13;;;14.18;56.93
15914;BME280;8055;51.930;8.840;2022-09-03T04:21:54;99380.22;;;14.20;56.76
15914;BME280;8055;51.930;8.840;2022-09-03T04:24:20;99376.41;;;14.21;56.84
15914;BME280;8055;51.930;8.840;2022-09-03T04:26:45;99379.75;;;14.16;56.32
15914;BME280;8055;51.930;8.840;2022-09-03T04:29:11;99385.44;;;14.15;57.09
15914;BME280;8055;51.930;8.840;2022-09-03T04:31:37;99374.53;;;14.15;56.42
15914;BME280;8055;51.930;8.840;2022-09-03T04:34:03;99377.03;;;14.09;56.76
15914;BME280;8055;51.930;8.840;2022-09-03T04:36:31;99375.13;;;14.10;56.79
15914;BME280;8055;51.930;8.840;2022-09-03T04:38:59;99376.19;;;14.09;57.10
15914;BME280;8055;51.930;8.840;2022-09-03T04:41:28;99377.25;;;14.08;56.85
15914;BME280;8055;51.930;8.840;2022-09-03T04:43:55;99379.34;;;14.06;57.34
15914;BME280;8055;51.930;8.840;2022-09-03T04:46:23;99380.19;;;14.13;57.30
15914;BME280;8055;51.930;8.840;2022-09-03T04:48:51;99364.84;;;14.12;57.14
15914;BME280;8055;51.930;8.840;2022-09-03T04:51:23;99364.84;;;14.12;57.21
15914;BME280;8055;51.930;8.840;2022-09-03T04:53:55;99375.34;;;14.15;56.98
15914;BME280;8055;51.930;8.840;2022-09-03T04:56:22;99373.69;;;14.14;56.93
15914;BME280;8055;51.930;8.840;2022-09-03T04:58:53;99383.31;;;14.10;57.40
15914;BME280;8055;51.930;8.840;2022-09-03T05:01:20;99378.69;;;14.04;57.91
15914;BME280;8055;51.930;8.840;2022-09-03T05:03:47;99378.69;;;14.04;57.66
15914;BME280;8055;51.930;8.840;2022-09-03T05:06:13;99378.69;;;14.04;57.56
15914;BME280;8055;51.930;8.840;2022-09-03T05:08:41;99378.69;;;13.97;57.88
15914;BME280;8055;51.930;8.840;2022-09-03T05:11:08;99378.50;;;14.05;57.92
15914;BME280;8055;51.930;8.840;2022-09-03T05:13:34;99372.19;;;14.05;57.66
15914;BME280;8055;51.930;8.840;2022-09-03T05:16:07;99381.66;;;14.02;58.47
15914;BME280;8055;51.930;8.840;2022-09-03T05:18:33;99375.34;;;13.95;58.75
15914;BME280;8055;51.930;8.840;2022-09-03T05:21:04;99382.47;;;14.03;58.36
15914;BME280;8055;51.930;8.840;2022-09-03T05:23:31;99378.50;;;13.99;58.89
15914;BME280;8055;51.930;8.840;2022-09-03T05:25:58;99380.41;;;14.05;58.31
15914;BME280;8055;51.930;8.840;2022-09-03T05:28:28;99381.00;;;14.07;58.57
15914;BME280;8055;51.930;8.840;2022-09-03T05:33:36;99387.34;;;14.14;58.21
15914;BME280;8055;51.930;8.840;2022-09-03T05:36:11;99386.94;;;14.17;58.36
15914;BME280;8055;51.930;8.840;2022-09-03T05:38:37;99390.09;;;14.21;58.41
15914;BME280;8055;51.930;8.840;2022-09-03T05:41:07;99384.19;;;14.30;58.30
15914;BME280;8055;51.930;8.840;2022-09-03T05:43:34;99394.06;;;14.31;58.17
15914;BME280;8055;51.930;8.840;2022-09-03T05:46:04;99384.19;;;14.37;57.80
15914;BME280;8055;51.930;8.840;2022-09-03T05:48:32;99385.25;;;14.43;58.14
15914;BME280;8055;51.930;8.840;2022-09-03T05:53:29;99387.38;;;14.54;57.36
15914;BME280;8055;51.930;8.840;2022-09-03T05:56:01;99388.84;;;14.63;57.31
15914;BME280;8055;51.930;8.840;2022-09-03T05:58:33;99388.84;;;14.63;57.39
15914;BME280;8055;51.930;8.840;2022-09-03T06:01:01;99388.41;;;14.66;57.63
15914;BME280;8055;51.930;8.840;2022-09-03T06:03:33;99389.88;;;14.75;56.99
15914;BME280;8055;51.930;8.840;2022-09-03T06:05:59;99388.44;;;14.79;57.25
15914;BME280;8055;51.930;8.840;2022-09-03T06:08:24;99388.00;;;14.83;56.93
15914;BME280;8055;51.930;8.840;2022-09-03T06:10:57;99391.75;;;14.88;56.83
15914;BME280;8055;51.930;8.840;2022-09-03T06:13:22;99389.25;;;14.87;56.87
15914;BME280;8055;51.930;8.840;2022-09-03T06:15:48;99388.84;;;14.90;56.32
15914;BME280;8055;51.930;8.840;2022-09-03T06:18:13;99394.06;;;14.91;56.65
15914;BME280;8055;51.930;8.840;2022-09-03T06:20:39;99397.66;;;14.98;56.42
15914;BME280;8055;51.930;8.840;2022-09-03T06:23:04;99393.03;;;14.99;55.92
15914;BME280;8055;51.930;8.840;2022-09-03T06:25:29;99398.25;;;15.07;56.31
15914;BME280;8055;51.930;8.840;2022-09-03T06:27:56;99394.22;;;15.16;56.26
15914;BME280;8055;51.930;8.840;2022-09-03T06:30:21;99399.28;;;15.19;56.35
15914;BME280;8055;51.930;8.840;2022-09-03T06:32:48;99393.56;;;15.27;56.00
15914;BME280;8055;51.930;8.840;2022-09-03T06:35:15;99395.66;;;15.32;55.43
15914;BME280;8055;51.930;8.840;2022-09-03T06:37:41;99398.16;;;15.40;55.73
15914;BME280;8055;51.930;8.840;2022-09-03T06:40:08;99396.22;;;15.47;55.00
15914;BME280;8055;51.930;8.840;2022-09-03T06:42:41;99395.78;;;15.50;55.05
15914;BME280;8055;51.930;8.840;2022-09-03T06:45:08;99402.50;;;15.61;55.24
15914;BME280;8055;51.930;8.840;2022-09-03T06:47:34;99392.38;;;15.68;55.17
15914;BME280;8055;51.930;8.840;2022-09-03T06:49:59;99400.13;;;15.78;54.59
15914;BME280;8055;51.930;8.840;2022-09-03T06:52:26;99394.00;;;15.83;55.30
15914;BME280;8055;51.930;8.840;2022-09-03T06:54:51;99396.88;;;15.94;55.33
15914;BME280;8055;51.930;8.840;2022-09-03T06:57:17;99399.41;;;15.96;54.08
15914;BME280;8055;51.930;8.840;2022-09-03T06:59:42;99401.88;;;16.04;54.42
15914;BME280;8055;51.930;8.840;2022-09-03T07:02:08;99404.38;;;16.12;54.13
15914;BME280;8055;51.930;8.840;2022-09-03T07:04:34;99398.84;;;16.19;54.12
15914;BME280;8055;51.930;8.840;2022-09-03T07:06:59;99403.81;;;16.29;54.20
15914;BME280;8055;51.930;8.840;2022-09-03T07:09:25;99405.47;;;16.36;54.47
15914;BME280;8055;51.930;8.840;2022-09-03T07:11:51;99402.28;;;16.39;53.61
15914;BME280;8055;51.930;8.840;2022-09-03T07:14:19;99404.97;;;16.46;52.75
15914;BME280;8055;51.930;8.840;2022-09-03T07:16:45;99402.38;;;16.51;53.41
15914;BME280;8055;51.930;8.840;2022-09-03T07:19:10;99396.44;;;16.54;53.60
15914;BME280;8055;51.930;8.840;2022-09-03T07:21:38;99399.81;;;16.56;53.15
15914;BME280;8055;51.930;8.840;2022-09-03T07:24:06;99398.09;;;16.62;53.04
15914;BME280;8055;51.930;8.840;2022-09-03T07:26:37;99387.69;;;16.71;52.65
15914;BME280;8055;51.930;8.840;2022-09-03T07:29:04;99388.88;;;16.81;52.96
15914;BME280;8055;51.930;8.840;2022-09-03T07:31:37;99387.06;;;16.94;52.11
15914;BME280;8055;51.930;8.840;2022-09-03T07:34:10;99380.59;;;17.06;51.95
15914;BME280;8055;51.930;8.840;2022-09-03T07:36:38;99391.22;;;17.21;52.12
15914;BME280;8055;51.930;8.840;2022-09-03T07:39:06;99385.88;;;17.26;51.26
15914;BME280;8055;51.930;8.840;2022-09-03T07:41:31;99384.50;;;17.35;51.37
15914;BME280;8055;51.930;8.840;2022-09-03T07:43:57;99378.91;;;17.42;50.89
15914;BME280;8055;51.930;8.840;2022-09-03T07:46:25;99384.13;;;17.50;50.74
15914;BME280;8055;51.930;8.840;2022-09-03T07:48:55;99383.19;;;17.56;50.83
15914;BME280;8055;51.930;8.840;2022-09-03T07:51:23;99380.22;;;17.58;50.44
15914;BME280;8055;51.930;8.840;2022-09-03T07:53:53;99381.91;;;17.59;50.50
15914;BME280;8055;51.930;8.840;2022-09-03T07:56:18;99374.78;;;17.70;50.72
15914;BME280;8055;51.930;8.840;2022-09-03T07:58:44;99371.75;;;17.78;50.33
15914;BME280;8055;51.930;8.840;2022-09-03T08:01:16;99377.75;;;17.87;50.15
15914;BME280;8055;51.930;8.840;2022-09-03T08:03:43;99381.88;;;17.96;50.04
15914;BME280;8055;51.930;8.840;2022-09-03T08:06:10;99383.06;;;18.00;49.09
15914;BME280;8055;51.930;8.840;2022-09-03T08:08:36;99378.41;;;18.00;49.69
15914;BME280;8055;51.930;8.840;2022-09-03T08:13:39;99380.84;;;18.20;49.54
15914;BME280;8055;51.930;8.840;2022-09-03T08:16:06;99389.84;;;18.27;50.09
15914;BME280;8055;51.930;8.840;2022-09-03T08:18:33;99388.41;;;18.25;49.93
15914;BME280;8055;51.930;8.840;2022-09-03T08:21:03;99385.44;;;18.38;49.85
15914;BME280;8055;51.930;8.840;2022-09-03T08:23:29;99388.84;;;18.52;50.04
15914;BME280;8055;51.930;8.840;2022-09-03T08:26:01;99390.25;;;18.55;49.07
15914;BME280;8055;51.930;8.840;2022-09-03T08:28:27;99391.47;;;18.59;49.21
15914;BME280;8055;51.930;8.840;2022-09-03T08:30:54;99386.19;;;18.57;49.45
15914;BME280;8055;51.930;8.840;2022-09-03T08:33:20;99391.81;;;18.62;49.56
15914;BME280;8055;51.930;8.840;2022-09-03T08:36:15;99386.94;;;18.76;49.64
15914;BME280;8055;51.930;8.840;2022-09-03T08:38:42;99390.06;;;18.80;49.37
15914;BME280;8055;51.930;8.840;2022-09-03T08:49:23;99383.69;;;19.38;48.55
15914;BME280;8055;51.930;8.840;2022-09-03T08:51:51;99375.41;;;19.50;47.66
15914;BME280;8055;51.930;8.840;2022-09-03T08:54:20;99374.78;;;19.59;47.72
15914;BME280;8055;51.930;8.840;2022-09-03T08:56:48;99381.00;;;19.67;46.92
15914;BME280;8055;51.930;8.840;2022-09-03T08:59:14;99375.94;;;19.75;46.15
15914;BME280;8055;51.930;8.840;2022-09-03T09:01:56;99385.47;;;19.96;46.78
15914;BME280;8055;51.930;8.840;2022-09-03T09:04:36;99381.31;;;20.10;45.92
15914;BME280;8055;51.930;8.840;2022-09-03T09:07:13;99389.97;;;20.31;46.02
15914;BME280;8055;51.930;8.840;2022-09-03T09:12:44;99372.09;;;20.67;45.45
15914;BME280;8055;51.930;8.840;2022-09-03T09:23:46;99362.47;;;21.03;43.68
15914;BME280;8055;51.930;8.840;2022-09-03T09:26:15;99362.91;;;21.17;43.18
15914;BME280;8055;51.930;8.840;2022-09-03T09:28:42;99354.13;;;21.20;42.61
15914;BME280;8055;51.930;8.840;2022-09-03T09:31:11;99347.22;;;21.40;42.83
15914;BME280;8055;51.930;8.840;2022-09-03T09:33:39;99347.09;;;21.52;42.16
15914;BME280;8055;51.930;8.840;2022-09-03T09:36:10;99345.72;;;21.76;43.13
15914;BME280;8055;51.930;8.840;2022-09-03T09:38:40;99345.44;;;21.78;41.34
15914;BME280;8055;51.930;8.840;2022-09-03T09:41:17;99343.16;;;21.97;42.45
15914;BME280;8055;51.930;8.840;2022-09-03T09:43:44;99345.47;;;22.05;41.99
15914;BME280;8055;51.930;8.840;2022-09-03T09:46:20;99339.63;;;22.01;40.92
15914;BME280;8055;51.930;8.840;2022-09-03T09:48:51;99337.78;;;22.12;41.29
15914;BME280;8055;51.930;8.840;2022-09-03T09:51:20;99334.28;;;22.16;40.83
15914;BME280;8055;51.930;8.840;2022-09-03T09:53:47;99336.53;;;22.20;40.68
15914;BME280;8055;51.930;8.840;2022-09-03T09:56:23;99342.44;;;22.33;40.74
15914;BME280;8055;51.930;8.840;2022-09-03T09:58:49;99336.16;;;22.38;40.40
15914;BME280;8055;51.930;8.840;2022-09-03T10:01:25;99339.25;;;22.47;39.80
15914;BME280;8055;51.930;8.840;2022-09-03T10:03:59;99339.88;;;22.59;40.06
15914;BME280;8055;51.930;8.840;2022-09-03T10:06:32;99333.53;;;22.58;39.37
15914;BME280;8055;51.930;8.840;2022-09-03T10:09:19;99333.06;;;22.72;39.28
15914;BME280;8055;51.930;8.840;2022-09-03T10:12:07;99328.75;;;22.86;39.93
15914;BME280;8055;51.930;8.840;2022-09-03T10:14:38;99331.88;;;22.95;39.30
15914;BME280;8055;51.930;8.840;2022-09-03T10:17:18;99321.09;;;22.98;38.72
15914;BME280;8055;51.930;8.840;2022-09-03T10:20:14;99327.06;;;23.22;39.15
15914;BME280;8055;51.930;8.840;2022-09-03T10:22:58;99330.06;;;23.21;38.50
15914;BME280;8055;51.930;8.840;2022-09-03T10:25:29;99331.47;;;23.23;37.96
15914;BME280;8055;51.930;8.840;2022-09-03T10:27:59;99320.47;;;23.39;37.45
15914;BME280;8055;51.930;8.840;2022-09-03T10:30:27;99322.94;;;23.35;37.06
15914;BME280;8055;51.930;8.840;2022-09-03T10:33:09;99319.44;;;23.60;37.39
15914;BME280;8055;51.930;8.840;2022-09-03T10:35:46;99321.34;;;23.60;37.25
15914;BME280;8055;51.930;8.840;2022-09-03T10:38:28;99317.84;;;23.74;37.17
15914;BME280;8055;51.930;8.840;2022-09-03T10:46:15;99315.41;;;24.04;35.96
15914;BME280;8055;51.930;8.840;2022-09-03T10:51:38;99314.84;;;24.07;35.61
15914;BME280;8055;51.930;8.840;2022-09-03T10:56:58;99309.03;;;24.34;36.19
15914;BME280;8055;51.930;8.840;2022-09-03T11:02:53;99310.97;;;24.28;36.18
15914;BME280;8055;51.930;8.840;2022-09-03T11:08:00;99306.03;;;24.45;35.52
15914;BME280;8055;51.930;8.840;2022-09-03T11:10:34;99312.13;;;24.53;35.81
15914;BME280;8055;51.930;8.840;2022-09-03T11:13:12;99308.22;;;24.69;35.33
15914;BME280;8055;51.930;8.840;2022-09-03T11:15:47;99299.91;;;24.54;34.94
15914;BME280;8055;51.930;8.840;2022-09-03T11:18:24;99297.66;;;24.71;35.72
15914;BME280;8055;51.930;8.840;2022-09-03T11:20:53;99298.19;;;24.83;35.50
15914;BME280;8055;51.930;8.840;2022-09-03T11:23:20;99298.16;;;24.93;34.59
15914;BME280;8055;51.930;8.840;2022-09-03T11:25:53;99294.88;;;24.91;34.52
15914;BME280;8055;51.930;8.840;2022-09-03T11:30:51;99294.22;;;25.10;34.68
15914;BME280;8055;51.930;8.840;2022-09-03T11:33:23;99294.53;;;25.03;34.28
15914;BME280;8055;51.930;8.840;2022-09-03T11:35:58;99293.69;;;25.23;34.22
15914;BME280;8055;51.930;8.840;2022-09-03T11:38:27;99290.59;;;25.30;33.97
15914;BME280;8055;51.930;8.840;2022-09-03T11:49:09;99287.38;;;26.06;32.83
15914;BME280;8055;51.930;8.840;2022-09-03T11:51:36;99277.31;;;25.71;33.23
15914;BME280;8055;51.930;8.840;2022-09-03T11:56:38;99284.53;;;24.97;34.25
15914;BME280;8055;51.930;8.840;2022-09-03T12:01:43;99292.72;;;24.42;34.87
15914;BME280;8055;51.930;8.840;2022-09-03T12:04:12;99275.75;;;24.34;35.02
15914;BME280;8055;51.930;8.840;2022-09-03T12:07:07;99292.09;;;24.15;35.23
15914;BME280;8055;51.930;8.840;2022-09-03T12:12:48;99289.31;;;24.10;35.30
15914;BME280;8055;51.930;8.840;2022-09-03T12:18:13;99286.00;;;24.59;35.14
15914;BME280;8055;51.930;8.840;2022-09-03T12:23:26;99281.59;;;24.42;34.89
15914;BME280;8055;51.930;8.840;2022-09-03T12:25:52;99279.34;;;24.39;35.34
15914;BME280;8055;51.930;8.840;2022-09-03T12:28:20;99270.47;;;24.37;35.17
15914;BME280;8055;51.930;8.840;2022-09-03T12:30:52;99280.47;;;24.38;35.58
15914;BME280;8055;51.930;8.840;2022-09-03T12:33:21;99276.00;;;24.37;35.63
15914;BME280;8055;51.930;8.840;2022-09-03T12:35:59;99276.88;;;24.43;35.26
15914;BME280;8055;51.930;8.840;2022-09-03T12:38:27;99274.06;;;24.53;35.50
15914;BME280;8055;51.930;8.840;2022-09-03T12:40:53;99271.00;;;24.70;35.04
15914;BME280;8055;51.930;8.840;2022-09-03T12:43:19;99273.13;;;25.04;35.10
15914;BME280;8055;51.930;8.840;2022-09-03T12:45:51;99273.91;;;25.30;34.76
15914;BME280;8055;51.930;8.840;2022-09-03T12:48:18;99274.25;;;25.13;34.19
15914;BME280;8055;51.930;8.840;2022-09-03T12:50:45;99269.03;;;24.81;34.23
15914;BME280;8055;51.930;8.840;2022-09-03T12:53:16;99266.03;;;24.67;34.41
15914;BME280;8055;51.930;8.840;2022-09-03T12:55:55;99264.06;;;24.73;34.52
15914;BME280;8055;51.930;8.840;2022-09-03T12:58:31;99264.63;;;24.64;34.78
15914;BME280;8055;51.930;8.840;2022-09-03T13:01:25;99268.78;;;24.72;34.53
15914;BME280;8055;51.930;8.840;2022-09-03T13:03:54;99258.78;;;24.71;34.89
15914;BME280;8055;51.930;8.840;2022-09-03T13:06:28;99261.03;;;24.59;34.93
15914;BME280;8055;51.930;8.840;2022-09-03T13:09:02;99262.97;;;24.53;34.73
15914;BME280;8055;51.930;8.840;2022-09-03T13:11:32;99267.97;;;24.56;35.18
15914;BME280;8055;51.930;8.840;2022-09-03T13:25:18;99265.19;;;24.20;35.25
15914;BME280;8055;51.930;8.840;2022-09-03T13:28:20;99274.63;;;24.14;35.37
15914;BME280;8055;51.930;8.840;2022-09-03T13:30:57;99274.91;;;24.13;35.32
15914;BME280;8055;51.930;8.840;2022-09-03T13:33:52;99275.47;;;24.15;35.09
15914;BME280;8055;51.930;8.840;2022-09-03T13:36:24;99274.91;;;24.02;35.21
15914;BME280;8055;51.930;8.840;2022-09-03T13:39:00;99275.47;;;24.05;35.11
15914;BME280;8055;51.930;8.840;2022-09-03T13:41:37;99262.13;;;24.01;34.84
15914;BME280;8055;51.930;8.840;2022-09-03T13:44:10;99271.31;;;24.07;35.57
15914;BME280;8055;51.930;8.840;2022-09-03T13:49:34;99267.41;;;24.18;35.37
15914;BME280;8055;51.930;8.840;2022-09-03T13:52:30;99264.09;;;24.16;35.21
15914;BME280;8055;51.930;8.840;2022-09-03T13:55:00;99249.94;;;24.18;35.15
15914;BME280;8055;51.930;8.840;2022-09-03T13:57:48;99249.09;;;24.17;34.87
15914;BME280;8055;51.930;8.840;2022-09-03T14:00:40;99255.75;;;24.21;34.88
15914;BME280;8055;51.930;8.840;2022-09-03T14:06:00;99247.72;;;24.15;34.70
15914;BME280;8055;51.930;8.840;2022-09-03T14:08:34;99261.59;;;24.05;34.84
15914;BME280;8055;51.930;8.840;2022-09-03T14:13:59;99252.69;;;24.13;35.06
15914;BME280;8055;51.930;8.840;2022-09-03T14:19:18;99250.47;;;24.25;34.96
15914;BME280;8055;51.930;8.840;2022-09-03T14:21:56;99243.53;;;24.38;35.40
15914;BME280;8055;51.930;8.840;2022-09-03T14:24:43;99241.06;;;24.46;35.05
15914;BME280;8055;51.930;8.840;2022-09-03T14:27:11;99243.00;;;24.51;34.74
15914;BME280;8055;51.930;8.840;2022-09-03T14:29:37;99235.75;;;24.50;34.44
15914;BME280;8055;51.930;8.840;2022-09-03T14:40:41;99248.41;;;25.07;33.79
15914;BME280;8055;51.930;8.840;2022-09-03T14:43:21;99248.56;;;25.42;32.73
15914;BME280;8055;51.930;8.840;2022-09-03T14:51:21;99250.44;;;25.51;32.52
15914;BME280;8055;51.930;8.840;2022-09-03T14:57:09;99255.06;;;25.11;33.54
15914;BME280;8055;51.930;8.840;2022-09-03T15:08:08;99262.13;;;24.73;33.89
15914;BME280;8055;51.930;8.840;2022-09-03T15:11:00;99263.22;;;24.77;34.42
15914;BME280;8055;51.930;8.840;2022-09-03T15:13:29;99262.72;;;24.55;34.42
15914;BME280;8055;51.930;8.840;2022-09-03T15:16:48;99261.59;;;24.51;34.28
15914;BME280;8055;51.930;8.840;2022-09-03T15:21:59;99262.72;;;24.44;34.57
15914;BME280;8055;51.930;8.840;2022-09-03T15:30:08;99265.47;;;24.24;34.16
15914;BME280;8055;51.930;8.840;2022-09-03T15:39:02;99257.41;;;24.58;34.14
15914;BME280;8055;51.930;8.840;2022-09-03T15:41:39;99259.91;;;25.50;32.21
15914;BME280;8055;51.930;8.840;2022-09-03T15:44:13;99251.44;;;26.44;30.95
15914;BME280;8055;51.930;8.840;2022-09-03T15:52:08;99251.03;;;29.21;28.17
15914;BME280;8055;51.930;8.840;2022-09-03T15:54:47;99250.06;;;29.39;27.77
15914;BME280;8055;51.930;8.840;2022-09-03T16:00:07;99253.81;;;29.35;26.33
15914;BME280;8055;51.930;8.840;2022-09-03T16:16:01;99267.53;;;26.82;29.45
15914;BME280;8055;51.930;8.840;2022-09-03T16:18:35;99274.63;;;26.35;29.96
15914;BME280;8055;51.930;8.840;2022-09-03T16:21:10;99275.00;;;25.89;30.46
15914;BME280;8055;51.930;8.840;2022-09-03T16:26:13;99273.88;;;25.35;31.84
15914;BME280;8055;51.930;8.840;2022-09-03T16:36:53;99281.53;;;24.78;33.40
15914;BME280;8055;51.930;8.840;2022-09-03T16:42:11;99282.97;;;24.55;33.50
15914;BME280;8055;51.930;8.840;2022-09-03T16:45:08;99282.41;;;24.53;33.28
15914;BME280;8055;51.930;8.840;2022-09-03T16:53:55;99292.69;;;24.17;33.06
15914;BME280;8055;51.930;8.840;2022-09-03T17:02:01;99286.25;;;23.81;34.19
15914;BME280;8055;51.930;8.840;2022-09-03T17:09:56;99292.78;;;23.49;35.00
15914;BME280;8055;51.930;8.840;2022-09-03T17:12:29;99300.25;;;23.43;35.23
15914;BME280;8055;51.930;8.840;2022-09-03T17:15:21;99289.41;;;23.37;35.29
15914;BME280;8055;51.930;8.840;2022-09-03T17:35:16;99303.13;;;22.63;36.82
15914;BME280;8055;51.930;8.840;2022-09-03T17:37:57;99300.59;;;22.57;36.62
15914;BME280;8055;51.930;8.840;2022-09-03T17:43:23;99307.41;;;22.44;37.24
15914;BME280;8055;51.930;8.840;2022-09-03T17:46:14;99304.81;;;22.32;37.14
15914;BME280;8055;51.930;8.840;2022-09-03T17:48:49;99308.88;;;22.20;38.15